Maritime Instructor — WCW8625 — position and weather

sailwx.info

Track history (hours):
 
Tides and Currents Weather Stations Pressure Air Temp Water Temp Dewpoint Dewpoint Depression Visibility Wind Speed Wind Dir Waves Ship Positions

Maritime Instructor

Owner: WASHINGTON, STATE OF, SEATTLE, WA. More information available from US FCC via Universal Licensing System and Coast Guard Vessel Documentation Center.

Last reported at 2017-Feb-23 06:33 UTC. Time now 2017-Feb-23 07:04 UTC.
Position N 47°40' W 122°23'.

Length 30 m; draft 2 m.

Type: Ship. MMSI: 303556000.

Date/timePositionNaut miles runAvg speedWind from/ knotsBaromVisibWave heightAir tempDewpointWater temp
2017-Feb-23 06:33N 47°40' W 122°23'0 0.0
2017-Feb-23 05:30N 47°40' W 122°23'0 0.0
2017-Feb-23 04:33N 47°40' W 122°23'0 0.0
2017-Feb-23 03:29N 47°40' W 122°23'0 0.0
2017-Feb-23 02:32N 47°40' W 122°23'0 0.0
2017-Feb-23 01:33N 47°40' W 122°23'3 2.6
2017-Feb-23 00:34N 47°41' W 122°26'1110.6
2017-Feb-22 23:33N 47°30' W 122°30'1110.7
2017-Feb-22 22:33N 47°20' W 122°33'1 1.0
2017-Feb-22 21:34N 47°20' W 122°35'0 0.0
2017-Feb-22 20:33N 47°20' W 122°35'7 6.8
2017-Feb-22 19:33N 47°26' W 122°31'9 9.5
2017-Feb-22 18:33N 47°35' W 122°26'5 5.1
2017-Feb-22 17:34N 47°40' W 122°23'0 0.2
2017-Feb-22 16:33N 47°40' W 122°23'0 0.0
2017-Feb-22 15:32N 47°40' W 122°23'0 0.0
2017-Feb-22 14:32N 47°40' W 122°23'0 0.0
2017-Feb-22 13:33N 47°40' W 122°23'0 0.0
2017-Feb-22 12:32N 47°40' W 122°23'0 0.0
2017-Feb-22 11:33N 47°40' W 122°23'0 0.0
2017-Feb-22 10:32N 47°40' W 122°23'0 0.0
2017-Feb-22 09:33N 47°40' W 122°23'0 0.0
2017-Feb-22 08:33N 47°40' W 122°23'0 0.0
2017-Feb-22 07:33N 47°40' W 122°23'0 0.0
2017-Feb-22 06:33N 47°40' W 122°23'0 0.0
2017-Feb-22 05:29N 47°40' W 122°23'0 0.0
2017-Feb-22 04:32N 47°40' W 122°23'0 0.0
2017-Feb-22 03:30N 47°40' W 122°23'0 0.0
2017-Feb-22 02:32N 47°40' W 122°23'0 0.0
2017-Feb-22 01:33N 47°40' W 122°23'0 0.0
2017-Feb-22 00:32N 47°40' W 122°23'0 0.0
2017-Feb-21 23:32N 47°40' W 122°23'3 3.3
2017-Feb-21 22:33N 47°39' W 122°18'6 5.6
2017-Feb-21 21:33N 47°44' W 122°17'4 3.9
2017-Feb-21 20:33N 47°41' W 122°15'1 1.1
2017-Feb-21 19:33N 47°42' W 122°14'4 4.3
2017-Feb-21 18:33N 47°39' W 122°20'2 2.0
2017-Feb-21 17:31N 47°40' W 122°23'0 0.0
2017-Feb-21 16:33N 47°40' W 122°23'0 0.0
2017-Feb-21 15:33N 47°40' W 122°23'0 0.0
2017-Feb-21 14:33N 47°40' W 122°23'0 0.0
2017-Feb-21 13:33N 47°40' W 122°23'0 0.0
2017-Feb-21 12:33N 47°40' W 122°23'0 0.0
2017-Feb-21 11:33N 47°40' W 122°23'0 0.0
2017-Feb-21 10:33N 47°40' W 122°23'0 0.0
2017-Feb-21 09:33N 47°40' W 122°23'0 0.0
2017-Feb-21 08:33N 47°40' W 122°23'0 0.0
2017-Feb-21 07:33N 47°40' W 122°23'0 0.0
2017-Feb-21 06:33N 47°40' W 122°23'0 0.0
2017-Feb-21 05:33N 47°40' W 122°23'0 0.0
2017-Feb-21 04:33N 47°40' W 122°23'0 0.0
2017-Feb-21 03:33N 47°40' W 122°23'0 0.0
2017-Feb-21 02:33N 47°40' W 122°23'0 0.0
2017-Feb-21 01:31N 47°40' W 122°23'0 0.0
2017-Feb-21 00:33N 47°40' W 122°23'0 0.0
2017-Feb-20 23:27N 47°40' W 122°23'0 0.0
2017-Feb-20 22:33N 47°40' W 122°23'0 0.0
2017-Feb-20 21:33N 47°40' W 122°23'0 0.0
2017-Feb-20 20:31N 47°40' W 122°23'0 0.0
2017-Feb-20 19:33N 47°40' W 122°23'0 0.0
2017-Feb-20 18:33N 47°40' W 122°23'0 0.0
2017-Feb-20 17:33N 47°40' W 122°23'0 0.0
2017-Feb-20 16:33N 47°40' W 122°23'0 0.0
2017-Feb-20 15:33N 47°40' W 122°23'0 0.0
2017-Feb-20 14:33N 47°40' W 122°23'0 0.0
2017-Feb-20 13:33N 47°40' W 122°23'0 0.0
2017-Feb-20 12:33N 47°40' W 122°23'0 0.0
2017-Feb-20 11:33N 47°40' W 122°23'0 0.0
2017-Feb-20 10:33N 47°40' W 122°23'0 0.0
2017-Feb-20 09:33N 47°40' W 122°23'0 0.0
2017-Feb-20 08:33N 47°40' W 122°23'0 0.0
2017-Feb-20 07:33N 47°40' W 122°23'0 0.0
2017-Feb-20 06:33N 47°40' W 122°23'0 0.0
2017-Feb-20 05:33N 47°40' W 122°23'0 0.0
2017-Feb-20 04:33N 47°40' W 122°23'0 0.0
2017-Feb-20 03:33N 47°40' W 122°23'0 0.0
2017-Feb-20 02:33N 47°40' W 122°23'0 0.0
2017-Feb-20 01:33N 47°40' W 122°23'0 0.0
2017-Feb-20 00:33N 47°40' W 122°23'0 0.0
2017-Feb-19 23:33N 47°40' W 122°23'0 0.0
2017-Feb-19 22:33N 47°40' W 122°23'0 0.0
2017-Feb-19 21:34N 47°40' W 122°23'0 0.0
2017-Feb-19 20:33N 47°40' W 122°23'0 0.0
2017-Feb-19 19:33N 47°40' W 122°23'0 0.0
2017-Feb-19 18:33N 47°40' W 122°23'0 0.0
2017-Feb-19 17:33N 47°40' W 122°23'0 0.0
2017-Feb-19 16:33N 47°40' W 122°23'0 0.0
2017-Feb-19 15:33N 47°40' W 122°23'0 0.0
2017-Feb-19 14:30N 47°40' W 122°23'0 0.0
2017-Feb-19 13:31N 47°40' W 122°23'0 0.0
2017-Feb-19 12:33N 47°40' W 122°23'0 0.0
2017-Feb-19 11:33N 47°40' W 122°23'0 0.0
2017-Feb-19 10:33N 47°40' W 122°23'0 0.0
2017-Feb-19 09:33N 47°40' W 122°23'0 0.0
2017-Feb-19 08:33N 47°40' W 122°23'0 0.0
2017-Feb-19 07:33N 47°40' W 122°23'0 0.0
2017-Feb-19 06:33N 47°40' W 122°23'0 0.0
2017-Feb-19 05:33N 47°40' W 122°23'0 0.0
2017-Feb-19 04:33N 47°40' W 122°23'0 0.0
2017-Feb-19 03:33N 47°40' W 122°23'0 0.0
2017-Feb-19 02:33N 47°40' W 122°23'0 0.0
2017-Feb-19 01:33N 47°40' W 122°23'0 0.0
2017-Feb-19 00:33N 47°40' W 122°23'0 0.0
2017-Feb-18 23:33N 47°40' W 122°23'0 0.0
2017-Feb-18 22:33N 47°40' W 122°23'0 0.0
2017-Feb-18 21:33N 47°40' W 122°23'0 0.0
2017-Feb-18 20:33N 47°40' W 122°23'0 0.0
2017-Feb-18 19:33N 47°40' W 122°23'0 0.0
2017-Feb-18 18:33N 47°40' W 122°23'0 0.0
2017-Feb-18 17:33N 47°40' W 122°23'0 0.0
2017-Feb-18 16:33N 47°40' W 122°23'0 0.0
2017-Feb-18 15:33N 47°40' W 122°23'0 0.0
2017-Feb-18 14:33N 47°40' W 122°23'0 0.0
2017-Feb-18 13:33N 47°40' W 122°23'0 0.0
2017-Feb-18 12:33N 47°40' W 122°23'0 0.0
2017-Feb-18 11:33N 47°40' W 122°23'0 0.0
2017-Feb-18 10:33N 47°40' W 122°23'0 0.0
2017-Feb-18 09:33N 47°40' W 122°23'0 0.0
2017-Feb-18 08:33N 47°40' W 122°23'0 0.0
2017-Feb-18 07:33N 47°40' W 122°23'0 0.0
2017-Feb-18 06:33N 47°40' W 122°23'0 0.0
2017-Feb-18 05:33N 47°40' W 122°23'0 0.0
2017-Feb-18 04:33N 47°40' W 122°23'0 0.0
2017-Feb-18 03:33N 47°40' W 122°23'0 0.0
2017-Feb-18 02:33N 47°40' W 122°23'0 0.0
2017-Feb-18 01:30N 47°40' W 122°23'0 0.0
2017-Feb-18 00:33N 47°40' W 122°23'0 0.0
2017-Feb-17 23:33N 47°40' W 122°23'0 0.0
2017-Feb-17 22:33N 47°40' W 122°23'0 0.0
2017-Feb-17 21:33N 47°40' W 122°23'0 0.0
2017-Feb-17 20:33N 47°40' W 122°23'0 0.0
2017-Feb-17 19:33N 47°40' W 122°23'0 0.0
2017-Feb-17 18:33N 47°40' W 122°23'0 0.0
2017-Feb-17 17:33N 47°40' W 122°23'0 0.0
2017-Feb-17 16:33N 47°40' W 122°23'0 0.0
2017-Feb-17 15:33N 47°40' W 122°23'0 0.0
2017-Feb-17 14:33N 47°40' W 122°23'0 0.0
2017-Feb-17 13:33N 47°40' W 122°23'0 0.0
2017-Feb-17 12:33N 47°40' W 122°23'0 0.0
2017-Feb-17 11:33N 47°40' W 122°23'0 0.0
2017-Feb-17 10:33N 47°40' W 122°23'0 0.0
2017-Feb-17 09:33N 47°40' W 122°23'0 0.0
2017-Feb-17 08:30N 47°40' W 122°23'0 0.0
2017-Feb-17 07:33N 47°40' W 122°23'0 0.0
2017-Feb-17 06:33N 47°40' W 122°23'0 0.0
2017-Feb-17 05:33N 47°40' W 122°23'0 0.0
2017-Feb-17 04:33N 47°40' W 122°23'0 0.0
2017-Feb-17 03:31N 47°40' W 122°23'0 0.0
2017-Feb-17 02:33N 47°40' W 122°23'0 0.0
2017-Feb-17 01:33N 47°40' W 122°23'0 0.0
2017-Feb-17 00:34N 47°40' W 122°23'0 0.0
2017-Feb-16 23:33N 47°40' W 122°23'0 0.0
2017-Feb-16 22:33N 47°40' W 122°23'0 0.0
2017-Feb-16 21:33N 47°40' W 122°23'0 0.0
2017-Feb-16 20:34N 47°40' W 122°23'0 0.0
2017-Feb-16 19:33N 47°40' W 122°23'0 0.0
2017-Feb-16 18:33N 47°40' W 122°23'0 0.0
2017-Feb-16 17:33N 47°40' W 122°23'0 0.0
2017-Feb-16 16:30N 47°40' W 122°23'0 0.0
2017-Feb-16 15:33N 47°40' W 122°23'0 0.0
2017-Feb-16 14:30N 47°40' W 122°23'0 0.0
2017-Feb-16 13:33N 47°40' W 122°23'0 0.0
2017-Feb-16 12:33N 47°40' W 122°23'0 0.0
2017-Feb-16 11:33N 47°40' W 122°23'0 0.0
2017-Feb-16 10:33N 47°40' W 122°23'0 0.0
2017-Feb-16 09:33N 47°40' W 122°23'0 0.0
2017-Feb-16 08:33N 47°40' W 122°23'0 0.0
2017-Feb-16 07:33N 47°40' W 122°23'0 0.0
2017-Feb-16 06:33N 47°40' W 122°23'0 0.0
2017-Feb-16 05:30N 47°40' W 122°23'0 0.0
2017-Feb-16 04:31N 47°40' W 122°23'0 0.0
2017-Feb-16 03:33N 47°40' W 122°23'0 0.0
2017-Feb-16 02:33N 47°40' W 122°23'0 0.0
2017-Feb-16 01:33N 47°40' W 122°23'0 0.0
2017-Feb-16 00:33N 47°40' W 122°23'2 2.3
2017-Feb-15 23:33N 47°41' W 122°25'9 9.4
2017-Feb-15 22:33N 47°50' W 122°24'9 9.0
2017-Feb-15 21:33N 47°59' W 122°19'1 1.4
2017-Feb-15 20:32N 48°00' W 122°18'1 0.6
2017-Feb-15 19:26N 47°60' W 122°18'9 9.8
2017-Feb-15 18:33N 47°52' W 122°23'1111.3
2017-Feb-15 17:33N 47°41' W 122°25'2 1.8
2017-Feb-15 16:33N 47°40' W 122°23'0 0.0
2017-Feb-15 15:33N 47°40' W 122°23'0 0.0
2017-Feb-15 14:33N 47°40' W 122°23'0 0.0
2017-Feb-15 13:33N 47°40' W 122°23'0 0.0
2017-Feb-15 12:33N 47°40' W 122°23'0 0.0
2017-Feb-15 11:33N 47°40' W 122°23'0 0.0
2017-Feb-15 10:33N 47°40' W 122°23'0 0.0
2017-Feb-15 09:33N 47°40' W 122°23'0 0.0
2017-Feb-15 08:33N 47°40' W 122°23'0 0.0
2017-Feb-15 07:33N 47°40' W 122°23'0 0.0
2017-Feb-15 06:33N 47°40' W 122°23'0 0.0
2017-Feb-15 05:33N 47°40' W 122°23'0 0.0
2017-Feb-15 04:33N 47°40' W 122°23'0 0.0
2017-Feb-15 03:33N 47°40' W 122°23'0 0.0
2017-Feb-15 02:33N 47°40' W 122°23'0 0.0
2017-Feb-15 01:33N 47°40' W 122°23'3 3.0
2017-Feb-15 00:33N 47°40' W 122°27'6 5.6
2017-Feb-14 23:33N 47°34' W 122°27'5 5.1
2017-Feb-14 22:33N 47°35' W 122°34'1 1.3
2017-Feb-14 21:33N 47°36' W 122°35'1 0.7
2017-Feb-14 20:33N 47°37' W 122°35'6 5.8
2017-Feb-14 19:33N 47°43' W 122°34'7 7.1
2017-Feb-14 18:33N 47°40' W 122°24'1 1.1
2017-Feb-14 17:32N 47°40' W 122°23'0 0.0
2017-Feb-14 16:33N 47°40' W 122°23'0 0.0
2017-Feb-14 15:29N 47°40' W 122°23'0 0.0
2017-Feb-14 14:33N 47°40' W 122°23'0 0.0
2017-Feb-14 13:32N 47°40' W 122°23'0 0.0
2017-Feb-14 12:29N 47°40' W 122°23'0 0.0
2017-Feb-14 11:33N 47°40' W 122°23'0 0.0
2017-Feb-14 10:31N 47°40' W 122°23'0 0.0
2017-Feb-14 09:32N 47°40' W 122°23'0 0.0
2017-Feb-14 08:32N 47°40' W 122°23'0 0.0
2017-Feb-14 07:32N 47°40' W 122°23'0 0.0
2017-Feb-14 06:33N 47°40' W 122°23'0 0.0
2017-Feb-14 05:32N 47°40' W 122°23'0 0.0
2017-Feb-14 04:32N 47°40' W 122°23'0 0.0
2017-Feb-14 03:32N 47°40' W 122°23'0 0.0
2017-Feb-14 02:32N 47°40' W 122°23'0 0.0
2017-Feb-14 01:32N 47°40' W 122°23'0 0.0
2017-Feb-14 00:32N 47°40' W 122°23'0 0.0
2017-Feb-13 23:32N 47°40' W 122°23'0 0.0
2017-Feb-13 22:32N 47°40' W 122°23'0 0.0
2017-Feb-13 21:32N 47°40' W 122°23'0 0.0
2017-Feb-13 20:32N 47°40' W 122°23'0 0.0
2017-Feb-13 19:32N 47°40' W 122°23'0 0.0
2017-Feb-13 18:31N 47°40' W 122°23'0 0.0
2017-Feb-13 17:31N 47°40' W 122°23'0 0.0
2017-Feb-13 16:32N 47°40' W 122°23'0 0.0
2017-Feb-13 15:32N 47°40' W 122°23'0 0.0
2017-Feb-13 14:32N 47°40' W 122°23'0 0.0
2017-Feb-13 13:32N 47°40' W 122°23'0 0.0
2017-Feb-13 12:32N 47°40' W 122°23'0 0.0
2017-Feb-13 11:32N 47°40' W 122°23'0 0.0
2017-Feb-13 10:32N 47°40' W 122°23'0 0.0
2017-Feb-13 09:32N 47°40' W 122°23'0 0.0
2017-Feb-13 08:32N 47°40' W 122°23'0 0.0
2017-Feb-13 07:32N 47°40' W 122°23'  
Track history (hours):
 
Tides and Currents Weather Stations Pressure Air Temp Water Temp Dewpoint Dewpoint Depression Visibility Wind Speed Wind Dir Waves Ship Positions

Maritime Instructor

Owner: WASHINGTON, STATE OF, SEATTLE, WA. More information available from US FCC via Universal Licensing System and Coast Guard Vessel Documentation Center.

Last reported at 2017-Feb-23 06:33 UTC. Time now 2017-Feb-23 07:04 UTC.
Position N 47°40' W 122°23'.

Length 30 m; draft 2 m.

Type: Ship. MMSI: 303556000.

Date/timePositionNaut miles runAvg speedWind from/ knotsBaromVisibWave heightAir tempDewpointWater temp
2017-Feb-23 06:33N 47°40' W 122°23'0 0.0
2017-Feb-23 05:30N 47°40' W 122°23'0 0.0
2017-Feb-23 04:33N 47°40' W 122°23'0 0.0
2017-Feb-23 03:29N 47°40' W 122°23'0 0.0
2017-Feb-23 02:32N 47°40' W 122°23'0 0.0
2017-Feb-23 01:33N 47°40' W 122°23'3 2.6
2017-Feb-23 00:34N 47°41' W 122°26'1110.6
2017-Feb-22 23:33N 47°30' W 122°30'1110.7
2017-Feb-22 22:33N 47°20' W 122°33'1 1.0
2017-Feb-22 21:34N 47°20' W 122°35'0 0.0
2017-Feb-22 20:33N 47°20' W 122°35'7 6.8
2017-Feb-22 19:33N 47°26' W 122°31'9 9.5
2017-Feb-22 18:33N 47°35' W 122°26'5 5.1
2017-Feb-22 17:34N 47°40' W 122°23'0 0.2
2017-Feb-22 16:33N 47°40' W 122°23'0 0.0
2017-Feb-22 15:32N 47°40' W 122°23'0 0.0
2017-Feb-22 14:32N 47°40' W 122°23'0 0.0
2017-Feb-22 13:33N 47°40' W 122°23'0 0.0
2017-Feb-22 12:32N 47°40' W 122°23'0 0.0
2017-Feb-22 11:33N 47°40' W 122°23'0 0.0
2017-Feb-22 10:32N 47°40' W 122°23'0 0.0
2017-Feb-22 09:33N 47°40' W 122°23'0 0.0
2017-Feb-22 08:33N 47°40' W 122°23'0 0.0
2017-Feb-22 07:33N 47°40' W 122°23'0 0.0
2017-Feb-22 06:33N 47°40' W 122°23'0 0.0
2017-Feb-22 05:29N 47°40' W 122°23'0 0.0
2017-Feb-22 04:32N 47°40' W 122°23'0 0.0
2017-Feb-22 03:30N 47°40' W 122°23'0 0.0
2017-Feb-22 02:32N 47°40' W 122°23'0 0.0
2017-Feb-22 01:33N 47°40' W 122°23'0 0.0
2017-Feb-22 00:32N 47°40' W 122°23'0 0.0
2017-Feb-21 23:32N 47°40' W 122°23'3 3.3
2017-Feb-21 22:33N 47°39' W 122°18'6 5.6
2017-Feb-21 21:33N 47°44' W 122°17'4 3.9
2017-Feb-21 20:33N 47°41' W 122°15'1 1.1
2017-Feb-21 19:33N 47°42' W 122°14'4 4.3
2017-Feb-21 18:33N 47°39' W 122°20'2 2.0
2017-Feb-21 17:31N 47°40' W 122°23'0 0.0
2017-Feb-21 16:33N 47°40' W 122°23'0 0.0
2017-Feb-21 15:33N 47°40' W 122°23'0 0.0
2017-Feb-21 14:33N 47°40' W 122°23'0 0.0
2017-Feb-21 13:33N 47°40' W 122°23'0 0.0
2017-Feb-21 12:33N 47°40' W 122°23'0 0.0
2017-Feb-21 11:33N 47°40' W 122°23'0 0.0
2017-Feb-21 10:33N 47°40' W 122°23'0 0.0
2017-Feb-21 09:33N 47°40' W 122°23'0 0.0
2017-Feb-21 08:33N 47°40' W 122°23'0 0.0
2017-Feb-21 07:33N 47°40' W 122°23'0 0.0
2017-Feb-21 06:33N 47°40' W 122°23'0 0.0
2017-Feb-21 05:33N 47°40' W 122°23'0 0.0
2017-Feb-21 04:33N 47°40' W 122°23'0 0.0
2017-Feb-21 03:33N 47°40' W 122°23'0 0.0
2017-Feb-21 02:33N 47°40' W 122°23'0 0.0
2017-Feb-21 01:31N 47°40' W 122°23'0 0.0
2017-Feb-21 00:33N 47°40' W 122°23'0 0.0
2017-Feb-20 23:27N 47°40' W 122°23'0 0.0
2017-Feb-20 22:33N 47°40' W 122°23'0 0.0
2017-Feb-20 21:33N 47°40' W 122°23'0 0.0
2017-Feb-20 20:31N 47°40' W 122°23'0 0.0
2017-Feb-20 19:33N 47°40' W 122°23'0 0.0
2017-Feb-20 18:33N 47°40' W 122°23'0 0.0
2017-Feb-20 17:33N 47°40' W 122°23'0 0.0
2017-Feb-20 16:33N 47°40' W 122°23'0 0.0
2017-Feb-20 15:33N 47°40' W 122°23'0 0.0
2017-Feb-20 14:33N 47°40' W 122°23'0 0.0
2017-Feb-20 13:33N 47°40' W 122°23'0 0.0
2017-Feb-20 12:33N 47°40' W 122°23'0 0.0
2017-Feb-20 11:33N 47°40' W 122°23'0 0.0
2017-Feb-20 10:33N 47°40' W 122°23'0 0.0
2017-Feb-20 09:33N 47°40' W 122°23'0 0.0
2017-Feb-20 08:33N 47°40' W 122°23'0 0.0
2017-Feb-20 07:33N 47°40' W 122°23'0 0.0
2017-Feb-20 06:33N 47°40' W 122°23'0 0.0
2017-Feb-20 05:33N 47°40' W 122°23'0 0.0
2017-Feb-20 04:33N 47°40' W 122°23'0 0.0
2017-Feb-20 03:33N 47°40' W 122°23'0 0.0
2017-Feb-20 02:33N 47°40' W 122°23'0 0.0
2017-Feb-20 01:33N 47°40' W 122°23'0 0.0
2017-Feb-20 00:33N 47°40' W 122°23'0 0.0
2017-Feb-19 23:33N 47°40' W 122°23'0 0.0
2017-Feb-19 22:33N 47°40' W 122°23'0 0.0
2017-Feb-19 21:34N 47°40' W 122°23'0 0.0
2017-Feb-19 20:33N 47°40' W 122°23'0 0.0
2017-Feb-19 19:33N 47°40' W 122°23'0 0.0
2017-Feb-19 18:33N 47°40' W 122°23'0 0.0
2017-Feb-19 17:33N 47°40' W 122°23'0 0.0
2017-Feb-19 16:33N 47°40' W 122°23'0 0.0
2017-Feb-19 15:33N 47°40' W 122°23'0 0.0
2017-Feb-19 14:30N 47°40' W 122°23'0 0.0
2017-Feb-19 13:31N 47°40' W 122°23'0 0.0
2017-Feb-19 12:33N 47°40' W 122°23'0 0.0
2017-Feb-19 11:33N 47°40' W 122°23'0 0.0
2017-Feb-19 10:33N 47°40' W 122°23'0 0.0
2017-Feb-19 09:33N 47°40' W 122°23'0 0.0
2017-Feb-19 08:33N 47°40' W 122°23'0 0.0
2017-Feb-19 07:33N 47°40' W 122°23'0 0.0
2017-Feb-19 06:33N 47°40' W 122°23'0 0.0
2017-Feb-19 05:33N 47°40' W 122°23'0 0.0
2017-Feb-19 04:33N 47°40' W 122°23'0 0.0
2017-Feb-19 03:33N 47°40' W 122°23'0 0.0
2017-Feb-19 02:33N 47°40' W 122°23'0 0.0
2017-Feb-19 01:33N 47°40' W 122°23'0 0.0
2017-Feb-19 00:33N 47°40' W 122°23'0 0.0
2017-Feb-18 23:33N 47°40' W 122°23'0 0.0
2017-Feb-18 22:33N 47°40' W 122°23'0 0.0
2017-Feb-18 21:33N 47°40' W 122°23'0 0.0
2017-Feb-18 20:33N 47°40' W 122°23'0 0.0
2017-Feb-18 19:33N 47°40' W 122°23'0 0.0
2017-Feb-18 18:33N 47°40' W 122°23'0 0.0
2017-Feb-18 17:33N 47°40' W 122°23'0 0.0
2017-Feb-18 16:33N 47°40' W 122°23'0 0.0
2017-Feb-18 15:33N 47°40' W 122°23'0 0.0
2017-Feb-18 14:33N 47°40' W 122°23'0 0.0
2017-Feb-18 13:33N 47°40' W 122°23'0 0.0
2017-Feb-18 12:33N 47°40' W 122°23'0 0.0
2017-Feb-18 11:33N 47°40' W 122°23'0 0.0
2017-Feb-18 10:33N 47°40' W 122°23'0 0.0
2017-Feb-18 09:33N 47°40' W 122°23'0 0.0
2017-Feb-18 08:33N 47°40' W 122°23'0 0.0
2017-Feb-18 07:33N 47°40' W 122°23'0 0.0
2017-Feb-18 06:33N 47°40' W 122°23'0 0.0
2017-Feb-18 05:33N 47°40' W 122°23'0 0.0
2017-Feb-18 04:33N 47°40' W 122°23'0 0.0
2017-Feb-18 03:33N 47°40' W 122°23'0 0.0
2017-Feb-18 02:33N 47°40' W 122°23'0 0.0
2017-Feb-18 01:30N 47°40' W 122°23'0 0.0
2017-Feb-18 00:33N 47°40' W 122°23'0 0.0
2017-Feb-17 23:33N 47°40' W 122°23'0 0.0
2017-Feb-17 22:33N 47°40' W 122°23'0 0.0
2017-Feb-17 21:33N 47°40' W 122°23'0 0.0
2017-Feb-17 20:33N 47°40' W 122°23'0 0.0
2017-Feb-17 19:33N 47°40' W 122°23'0 0.0
2017-Feb-17 18:33N 47°40' W 122°23'0 0.0
2017-Feb-17 17:33N 47°40' W 122°23'0 0.0
2017-Feb-17 16:33N 47°40' W 122°23'0 0.0
2017-Feb-17 15:33N 47°40' W 122°23'0 0.0
2017-Feb-17 14:33N 47°40' W 122°23'0 0.0
2017-Feb-17 13:33N 47°40' W 122°23'0 0.0
2017-Feb-17 12:33N 47°40' W 122°23'0 0.0
2017-Feb-17 11:33N 47°40' W 122°23'0 0.0
2017-Feb-17 10:33N 47°40' W 122°23'0 0.0
2017-Feb-17 09:33N 47°40' W 122°23'0 0.0
2017-Feb-17 08:30N 47°40' W 122°23'0 0.0
2017-Feb-17 07:33N 47°40' W 122°23'0 0.0
2017-Feb-17 06:33N 47°40' W 122°23'0 0.0
2017-Feb-17 05:33N 47°40' W 122°23'0 0.0
2017-Feb-17 04:33N 47°40' W 122°23'0 0.0
2017-Feb-17 03:31N 47°40' W 122°23'0 0.0
2017-Feb-17 02:33N 47°40' W 122°23'0 0.0
2017-Feb-17 01:33N 47°40' W 122°23'0 0.0
2017-Feb-17 00:34N 47°40' W 122°23'0 0.0
2017-Feb-16 23:33N 47°40' W 122°23'0 0.0
2017-Feb-16 22:33N 47°40' W 122°23'0 0.0
2017-Feb-16 21:33N 47°40' W 122°23'0 0.0
2017-Feb-16 20:34N 47°40' W 122°23'0 0.0
2017-Feb-16 19:33N 47°40' W 122°23'0 0.0
2017-Feb-16 18:33N 47°40' W 122°23'0 0.0
2017-Feb-16 17:33N 47°40' W 122°23'0 0.0
2017-Feb-16 16:30N 47°40' W 122°23'0 0.0
2017-Feb-16 15:33N 47°40' W 122°23'0 0.0
2017-Feb-16 14:30N 47°40' W 122°23'0 0.0
2017-Feb-16 13:33N 47°40' W 122°23'0 0.0
2017-Feb-16 12:33N 47°40' W 122°23'0 0.0
2017-Feb-16 11:33N 47°40' W 122°23'0 0.0
2017-Feb-16 10:33N 47°40' W 122°23'0 0.0
2017-Feb-16 09:33N 47°40' W 122°23'0 0.0
2017-Feb-16 08:33N 47°40' W 122°23'0 0.0
2017-Feb-16 07:33N 47°40' W 122°23'0 0.0
2017-Feb-16 06:33N 47°40' W 122°23'0 0.0
2017-Feb-16 05:30N 47°40' W 122°23'0 0.0
2017-Feb-16 04:31N 47°40' W 122°23'0 0.0
2017-Feb-16 03:33N 47°40' W 122°23'0 0.0
2017-Feb-16 02:33N 47°40' W 122°23'0 0.0
2017-Feb-16 01:33N 47°40' W 122°23'0 0.0
2017-Feb-16 00:33N 47°40' W 122°23'2 2.3
2017-Feb-15 23:33N 47°41' W 122°25'9 9.4
2017-Feb-15 22:33N 47°50' W 122°24'9 9.0
2017-Feb-15 21:33N 47°59' W 122°19'1 1.4
2017-Feb-15 20:32N 48°00' W 122°18'1 0.6
2017-Feb-15 19:26N 47°60' W 122°18'9 9.8
2017-Feb-15 18:33N 47°52' W 122°23'1111.3
2017-Feb-15 17:33N 47°41' W 122°25'2 1.8
2017-Feb-15 16:33N 47°40' W 122°23'0 0.0
2017-Feb-15 15:33N 47°40' W 122°23'0 0.0
2017-Feb-15 14:33N 47°40' W 122°23'0 0.0
2017-Feb-15 13:33N 47°40' W 122°23'0 0.0
2017-Feb-15 12:33N 47°40' W 122°23'0 0.0
2017-Feb-15 11:33N 47°40' W 122°23'0 0.0
2017-Feb-15 10:33N 47°40' W 122°23'0 0.0
2017-Feb-15 09:33N 47°40' W 122°23'0 0.0
2017-Feb-15 08:33N 47°40' W 122°23'0 0.0
2017-Feb-15 07:33N 47°40' W 122°23'0 0.0
2017-Feb-15 06:33N 47°40' W 122°23'0 0.0
2017-Feb-15 05:33N 47°40' W 122°23'0 0.0
2017-Feb-15 04:33N 47°40' W 122°23'0 0.0
2017-Feb-15 03:33N 47°40' W 122°23'0 0.0
2017-Feb-15 02:33N 47°40' W 122°23'0 0.0
2017-Feb-15 01:33N 47°40' W 122°23'3 3.0
2017-Feb-15 00:33N 47°40' W 122°27'6 5.6
2017-Feb-14 23:33N 47°34' W 122°27'5 5.1
2017-Feb-14 22:33N 47°35' W 122°34'1 1.3
2017-Feb-14 21:33N 47°36' W 122°35'1 0.7
2017-Feb-14 20:33N 47°37' W 122°35'6 5.8
2017-Feb-14 19:33N 47°43' W 122°34'7 7.1
2017-Feb-14 18:33N 47°40' W 122°24'1 1.1
2017-Feb-14 17:32N 47°40' W 122°23'0 0.0
2017-Feb-14 16:33N 47°40' W 122°23'0 0.0
2017-Feb-14 15:29N 47°40' W 122°23'0 0.0
2017-Feb-14 14:33N 47°40' W 122°23'0 0.0
2017-Feb-14 13:32N 47°40' W 122°23'0 0.0
2017-Feb-14 12:29N 47°40' W 122°23'0 0.0
2017-Feb-14 11:33N 47°40' W 122°23'0 0.0
2017-Feb-14 10:31N 47°40' W 122°23'0 0.0
2017-Feb-14 09:32N 47°40' W 122°23'0 0.0
2017-Feb-14 08:32N 47°40' W 122°23'0 0.0
2017-Feb-14 07:32N 47°40' W 122°23'0 0.0
2017-Feb-14 06:33N 47°40' W 122°23'0 0.0
2017-Feb-14 05:32N 47°40' W 122°23'0 0.0
2017-Feb-14 04:32N 47°40' W 122°23'0 0.0
2017-Feb-14 03:32N 47°40' W 122°23'0 0.0
2017-Feb-14 02:32N 47°40' W 122°23'0 0.0
2017-Feb-14 01:32N 47°40' W 122°23'0 0.0
2017-Feb-14 00:32N 47°40' W 122°23'0 0.0
2017-Feb-13 23:32N 47°40' W 122°23'0 0.0
2017-Feb-13 22:32N 47°40' W 122°23'0 0.0
2017-Feb-13 21:32N 47°40' W 122°23'0 0.0
2017-Feb-13 20:32N 47°40' W 122°23'0 0.0
2017-Feb-13 19:32N 47°40' W 122°23'0 0.0
2017-Feb-13 18:31N 47°40' W 122°23'0 0.0
2017-Feb-13 17:31N 47°40' W 122°23'0 0.0
2017-Feb-13 16:32N 47°40' W 122°23'0 0.0
2017-Feb-13 15:32N 47°40' W 122°23'0 0.0
2017-Feb-13 14:32N 47°40' W 122°23'0 0.0
2017-Feb-13 13:32N 47°40' W 122°23'0 0.0
2017-Feb-13 12:32N 47°40' W 122°23'0 0.0
2017-Feb-13 11:32N 47°40' W 122°23'0 0.0
2017-Feb-13 10:32N 47°40' W 122°23'0 0.0
2017-Feb-13 09:32N 47°40' W 122°23'0 0.0
2017-Feb-13 08:32N 47°40' W 122°23'0 0.0
2017-Feb-13 07:32N 47°40' W 122°23'  

Dump ship's entire track history